createdAt,value
2023-08-07T00:02:00.952Z,12.81
2023-08-07T00:04:27.575Z,12.81
2023-08-07T00:06:54.252Z,12.81
2023-08-07T00:09:20.876Z,12.81
2023-08-07T00:11:47.530Z,12.81
2023-08-07T00:14:14.159Z,12.88
2023-08-07T00:16:42.736Z,12.81
2023-08-07T00:19:09.350Z,12.88
2023-08-07T00:21:36.951Z,12.88
2023-08-07T00:24:03.800Z,12.81
2023-08-07T00:26:30.632Z,12.81
2023-08-07T00:28:57.278Z,12.88
2023-08-07T00:31:23.955Z,12.88
2023-08-07T00:33:52.964Z,12.94
2023-08-07T00:36:19.600Z,12.94
2023-08-07T00:38:46.237Z,12.94
2023-08-07T00:41:12.940Z,12.94
2023-08-07T00:43:39.593Z,12.94
2023-08-07T00:46:06.564Z,12.94
2023-08-07T00:48:33.375Z,12.94
2023-08-07T00:51:00.324Z,13.00
2023-08-07T00:53:27.401Z,12.94
2023-08-07T00:55:54.274Z,13.00
2023-08-07T00:58:21.047Z,13.00
2023-08-07T01:00:47.840Z,13.00
2023-08-07T01:03:15.225Z,13.00
2023-08-07T01:05:42.037Z,13.06
2023-08-07T01:08:09.654Z,13.06
2023-08-07T01:10:48.856Z,13.06
2023-08-07T01:13:35.145Z,13.00
2023-08-07T01:16:11.342Z,13.06
2023-08-07T01:18:40.001Z,13.00
2023-08-07T01:21:06.665Z,13.00
2023-08-07T01:23:33.301Z,13.00
2023-08-07T01:26:00.040Z,13.00
2023-08-07T01:28:26.610Z,13.06
2023-08-07T01:31:00.565Z,13.00
2023-08-07T01:33:48.886Z,13.06
2023-08-07T01:36:19.068Z,13.06
2023-08-07T01:38:48.278Z,13.06
2023-08-07T01:41:14.955Z,13.13
2023-08-07T01:43:41.724Z,13.06
2023-08-07T01:46:08.364Z,13.06
2023-08-07T01:48:35.065Z,13.13
2023-08-07T01:51:01.785Z,13.13
2023-08-07T01:53:28.418Z,13.13
2023-08-07T01:55:55.051Z,13.13
2023-08-07T01:58:21.696Z,13.13
2023-08-07T02:00:48.270Z,13.19
2023-08-07T02:03:14.979Z,13.13
2023-08-07T02:05:41.658Z,13.13
2023-08-07T02:08:08.268Z,13.13
2023-08-07T02:10:35.303Z,13.19
2023-08-07T02:13:01.993Z,13.13
2023-08-07T02:15:28.797Z,13.13
2023-08-07T02:17:55.467Z,13.13
2023-08-07T02:20:22.234Z,13.19
2023-08-07T02:22:48.841Z,13.13
2023-08-07T02:25:15.555Z,13.19
2023-08-07T02:27:42.173Z,13.19
2023-08-07T02:30:09.101Z,13.19
2023-08-07T02:32:35.913Z,13.19
2023-08-07T02:35:02.640Z,13.13
2023-08-07T02:37:29.213Z,13.19
2023-08-07T02:39:55.935Z,13.19
2023-08-07T02:42:22.575Z,13.19
2023-08-07T02:44:49.211Z,13.19
2023-08-07T02:47:15.829Z,13.19
2023-08-07T02:49:42.486Z,13.25
2023-08-07T02:52:09.151Z,13.25
2023-08-07T02:54:35.764Z,13.25
2023-08-07T02:57:02.353Z,13.19
2023-08-07T02:59:29.018Z,13.19
2023-08-07T03:01:55.639Z,13.13
2023-08-07T03:04:22.612Z,13.13
2023-08-07T03:06:49.359Z,13.13
2023-08-07T03:09:16.160Z,13.13
2023-08-07T03:11:42.813Z,13.19
2023-08-07T03:14:09.520Z,13.19
2023-08-07T03:16:36.125Z,13.13
2023-08-07T03:19:02.842Z,13.06
2023-08-07T03:21:29.450Z,13.00
2023-08-07T03:23:56.109Z,13.00
2023-08-07T03:26:22.708Z,13.06
2023-08-07T03:28:49.880Z,13.06
2023-08-07T03:31:16.947Z,13.00
2023-08-07T03:33:43.614Z,13.06
2023-08-07T03:36:10.423Z,13.06
2023-08-07T03:38:37.314Z,13.06
2023-08-07T03:41:04.353Z,13.06
2023-08-07T03:43:30.946Z,13.06
2023-08-07T03:45:59.547Z,13.06
2023-08-07T03:48:29.040Z,13.06
2023-08-07T03:51:12.262Z,13.06
2023-08-07T03:53:39.121Z,13.06
2023-08-07T03:56:05.803Z,13.06
2023-08-07T03:58:32.719Z,13.06
2023-08-07T04:00:59.444Z,13.06
2023-08-07T04:03:26.298Z,13.06
2023-08-07T04:05:57.075Z,13.13
2023-08-07T04:08:24.450Z,13.13
2023-08-07T04:11:05.423Z,13.13
2023-08-07T04:13:32.802Z,13.13
2023-08-07T04:15:59.938Z,13.19
2023-08-07T04:18:26.793Z,13.19
2023-08-07T04:20:56.714Z,13.19
2023-08-07T04:23:23.882Z,13.19
2023-08-07T04:25:51.665Z,13.19
2023-08-07T04:28:18.670Z,13.25
2023-08-07T04:30:46.458Z,13.19
2023-08-07T04:33:13.859Z,13.19
2023-08-07T04:35:40.954Z,13.25
2023-08-07T04:38:07.834Z,13.25
2023-08-07T04:40:34.604Z,13.25
2023-08-07T04:43:01.932Z,13.25
2023-08-07T04:45:28.590Z,13.31
2023-08-07T04:47:55.270Z,13.31
2023-08-07T04:50:21.877Z,13.25
2023-08-07T04:52:48.546Z,13.25
2023-08-07T04:55:15.221Z,13.25
2023-08-07T04:57:42.091Z,13.25
2023-08-07T05:00:09.564Z,13.25
2023-08-07T05:02:36.326Z,13.25
2023-08-07T05:05:03.092Z,13.19
2023-08-07T05:07:29.683Z,13.19
2023-08-07T05:09:56.336Z,13.25
2023-08-07T05:12:23.864Z,13.25
2023-08-07T05:14:50.638Z,13.25
2023-08-07T05:17:17.323Z,13.25
2023-08-07T05:19:43.906Z,13.25
2023-08-07T05:22:10.569Z,13.19
2023-08-07T05:24:40.344Z,13.19
2023-08-07T05:27:09.561Z,13.19
2023-08-07T05:29:44.508Z,13.13
2023-08-07T05:32:12.778Z,13.13
2023-08-07T05:34:40.019Z,13.13
2023-08-07T05:37:07.396Z,13.13
2023-08-07T05:39:35.550Z,13.13
2023-08-07T05:42:02.779Z,13.13
2023-08-07T05:44:30.419Z,13.13
2023-08-07T05:46:57.068Z,13.13
2023-08-07T05:49:25.970Z,13.13
2023-08-07T05:51:52.995Z,13.19
2023-08-07T05:54:19.582Z,13.19
2023-08-07T05:56:46.173Z,13.25
2023-08-07T05:59:12.925Z,13.25
2023-08-07T06:01:39.649Z,13.25
2023-08-07T06:04:06.324Z,13.25
2023-08-07T06:06:35.795Z,13.31
2023-08-07T06:09:07.381Z,13.31
2023-08-07T06:11:34.016Z,13.38
2023-08-07T06:14:00.811Z,13.44
2023-08-07T06:16:28.422Z,13.44
2023-08-07T06:18:55.276Z,13.44
2023-08-07T06:21:22.016Z,13.44
2023-08-07T06:23:48.649Z,13.50
2023-08-07T06:26:15.519Z,13.56
2023-08-07T06:28:43.314Z,13.63
2023-08-07T06:31:11.928Z,13.69
2023-08-07T06:33:38.745Z,13.75
2023-08-07T06:36:05.904Z,13.75
2023-08-07T06:38:32.536Z,13.88
2023-08-07T06:40:59.207Z,13.88
2023-08-07T06:43:25.859Z,13.88
2023-08-07T06:45:54.677Z,13.94
2023-08-07T06:48:21.561Z,14.00
2023-08-07T06:50:49.350Z,13.94
2023-08-07T06:53:16.316Z,13.94
2023-08-07T06:55:43.833Z,13.94
2023-08-07T06:58:10.969Z,14.00
2023-08-07T07:00:38.155Z,14.19
2023-08-07T07:03:05.331Z,14.50
2023-08-07T07:05:33.210Z,14.69
2023-08-07T07:07:59.887Z,14.69
2023-08-07T07:10:26.460Z,14.75
2023-08-07T07:12:53.367Z,14.56
2023-08-07T07:15:20.127Z,14.38
2023-08-07T07:17:46.891Z,14.13
2023-08-07T07:20:14.149Z,14.06
2023-08-07T07:22:40.926Z,13.94
2023-08-07T07:25:07.975Z,13.94
2023-08-07T07:27:34.699Z,14.00
2023-08-07T07:30:01.403Z,14.13
2023-08-07T07:32:28.246Z,14.31
2023-08-07T07:34:54.881Z,14.44
2023-08-07T07:37:21.575Z,14.75
2023-08-07T07:39:48.218Z,14.94
2023-08-07T07:42:14.874Z,15.19
2023-08-07T07:44:41.962Z,15.25
2023-08-07T07:47:11.616Z,15.19
2023-08-07T07:49:40.426Z,14.94
2023-08-07T07:52:07.781Z,14.75
2023-08-07T07:54:36.447Z,14.69
2023-08-07T07:57:03.165Z,14.56
2023-08-07T07:59:29.850Z,14.44
2023-08-07T08:01:56.842Z,14.31
2023-08-07T08:04:24.251Z,14.25
2023-08-07T08:06:51.052Z,14.25
2023-08-07T08:09:17.733Z,14.44
2023-08-07T08:11:44.627Z,14.56
2023-08-07T08:14:11.410Z,14.69
2023-08-07T08:16:38.065Z,14.56
2023-08-07T08:19:04.994Z,14.50
2023-08-07T08:21:32.494Z,14.50
2023-08-07T08:24:00.466Z,14.50
2023-08-07T08:26:27.098Z,14.63
2023-08-07T08:28:53.715Z,14.56
2023-08-07T08:31:22.558Z,14.56
2023-08-07T08:33:49.534Z,14.94
2023-08-07T08:36:16.279Z,15.13
2023-08-07T08:38:43.027Z,15.31
2023-08-07T08:41:10.679Z,15.44
2023-08-07T08:43:41.583Z,15.63
2023-08-07T08:46:12.470Z,15.81
2023-08-07T08:48:41.592Z,15.88
2023-08-07T08:51:09.812Z,15.88
2023-08-07T08:53:37.128Z,15.69
2023-08-07T08:56:03.937Z,15.38
2023-08-07T08:58:31.059Z,15.13
2023-08-07T09:00:57.815Z,14.94
2023-08-07T09:03:26.316Z,14.81
2023-08-07T09:05:57.992Z,14.69
2023-08-07T09:08:30.725Z,14.69
2023-08-07T09:10:57.648Z,14.75
2023-08-07T09:13:25.670Z,14.75
2023-08-07T09:15:53.407Z,15.00
2023-08-07T09:18:21.240Z,15.13
2023-08-07T09:20:48.238Z,15.38
2023-08-07T09:23:17.737Z,15.56
2023-08-07T09:25:45.493Z,16.00
2023-08-07T09:28:13.065Z,16.13
2023-08-07T09:30:40.162Z,16.31
2023-08-07T09:33:07.362Z,16.25
2023-08-07T09:35:35.475Z,16.19
2023-08-07T09:38:03.049Z,16.19
2023-08-07T09:40:30.676Z,16.25
2023-08-07T09:42:57.325Z,16.19
2023-08-07T09:45:27.801Z,16.06
2023-08-07T09:48:13.220Z,16.00
2023-08-07T09:50:40.109Z,15.94
2023-08-07T09:53:06.774Z,15.94
2023-08-07T09:55:33.507Z,16.00
2023-08-07T09:58:03.388Z,16.00
2023-08-07T10:00:35.280Z,16.00
2023-08-07T10:03:03.142Z,16.13
2023-08-07T10:05:31.895Z,16.13
2023-08-07T10:07:59.217Z,15.88
2023-08-07T10:10:26.536Z,15.69
2023-08-07T10:12:55.737Z,15.44
2023-08-07T10:15:22.949Z,15.31
2023-08-07T10:17:49.683Z,15.44
2023-08-07T10:20:16.829Z,15.44
2023-08-07T10:22:45.521Z,15.38
2023-08-07T10:25:12.239Z,15.81
2023-08-07T10:27:42.726Z,16.06
2023-08-07T10:30:16.034Z,16.13
2023-08-07T10:32:45.273Z,16.06
2023-08-07T10:35:30.460Z,16.44
2023-08-07T10:38:07.260Z,16.44
2023-08-07T10:40:34.088Z,16.75
2023-08-07T10:43:15.171Z,17.06
2023-08-07T10:45:41.909Z,16.75
2023-08-07T10:48:11.997Z,16.69
2023-08-07T10:50:54.594Z,16.56
2023-08-07T10:53:46.872Z,16.56
2023-08-07T10:56:19.343Z,16.69
2023-08-07T10:58:54.610Z,16.88
2023-08-07T11:01:21.417Z,17.00
2023-08-07T11:03:54.202Z,16.81
2023-08-07T11:06:34.153Z,17.00
2023-08-07T11:09:02.200Z,16.88
2023-08-07T11:11:28.857Z,16.81
2023-08-07T11:13:55.601Z,16.88
2023-08-07T11:16:23.923Z,16.69
2023-08-07T11:18:51.331Z,16.69
2023-08-07T11:21:18.113Z,16.38
2023-08-07T11:23:47.470Z,16.38
2023-08-07T11:26:14.378Z,16.31
2023-08-07T11:28:41.028Z,16.25
2023-08-07T11:31:07.841Z,16.44
2023-08-07T11:33:34.679Z,16.63
2023-08-07T11:36:01.444Z,17.13
2023-08-07T11:38:39.103Z,17.38
2023-08-07T11:41:08.205Z,17.56
2023-08-07T11:43:36.285Z,17.50
2023-08-07T11:46:05.991Z,17.19
2023-08-07T11:48:38.480Z,17.19
2023-08-07T11:51:06.722Z,17.44
2023-08-07T11:53:35.546Z,17.56
2023-08-07T11:56:05.321Z,17.63
2023-08-07T11:58:38.110Z,17.56
2023-08-07T12:01:11.993Z,17.56
2023-08-07T12:03:42.402Z,17.19
2023-08-07T12:06:10.321Z,17.19
2023-08-07T12:08:39.354Z,17.38
2023-08-07T12:11:16.019Z,17.56
2023-08-07T12:13:45.902Z,17.75
2023-08-07T12:16:17.871Z,17.94
2023-08-07T12:18:49.859Z,18.38
2023-08-07T12:21:25.338Z,18.44
2023-08-07T12:23:56.312Z,18.50
2023-08-07T12:26:23.117Z,18.25
2023-08-07T12:28:50.282Z,18.19
2023-08-07T12:31:18.713Z,18.56
2023-08-07T12:33:45.550Z,18.63
2023-08-07T12:38:44.077Z,17.94
2023-08-07T12:41:44.722Z,17.88
2023-08-07T12:43:57.470Z,17.69
2023-08-07T12:48:53.679Z,18.06
2023-08-07T12:51:20.291Z,18.00
2023-08-07T12:53:48.474Z,18.25
2023-08-07T12:56:15.300Z,18.31
2023-08-07T12:58:42.817Z,18.56
2023-08-07T13:01:10.472Z,18.75
2023-08-07T13:03:37.148Z,18.94
2023-08-07T13:06:07.069Z,18.75
2023-08-07T13:08:34.704Z,18.88
2023-08-07T13:11:02.341Z,19.00
2023-08-07T13:13:31.944Z,18.94
2023-08-07T13:15:58.663Z,19.13
2023-08-07T13:18:25.699Z,19.06
2023-08-07T13:20:52.366Z,19.19
2023-08-07T13:23:19.034Z,19.13
2023-08-07T13:25:45.663Z,19.06
2023-08-07T13:28:12.421Z,18.75
2023-08-07T13:30:39.050Z,18.50
2023-08-07T13:33:05.712Z,18.38
2023-08-07T13:35:36.016Z,17.94
2023-08-07T13:38:06.339Z,17.94
2023-08-07T13:40:33.275Z,18.13
2023-08-07T13:43:02.939Z,18.00
2023-08-07T13:45:29.589Z,18.06
2023-08-07T13:47:56.308Z,18.06
2023-08-07T13:50:23.018Z,18.00
2023-08-07T13:53:00.081Z,18.38
2023-08-07T13:55:35.206Z,18.75
2023-08-07T13:58:01.830Z,19.25
2023-08-07T14:00:29.399Z,19.38
2023-08-07T14:02:56.389Z,19.31
2023-08-07T14:05:23.679Z,19.50
2023-08-07T14:07:50.470Z,19.50
2023-08-07T14:10:17.078Z,19.25
2023-08-07T14:12:43.715Z,19.31
2023-08-07T14:15:10.754Z,19.31
2023-08-07T14:17:37.419Z,19.56
2023-08-07T14:20:05.941Z,19.31
2023-08-07T14:22:33.156Z,19.25
2023-08-07T14:24:59.743Z,19.19
2023-08-07T14:27:26.357Z,18.94
2023-08-07T14:29:52.949Z,19.00
2023-08-07T14:32:19.566Z,18.69
2023-08-07T14:34:47.917Z,18.50
2023-08-07T14:37:14.524Z,18.50
2023-08-07T14:39:41.220Z,18.69
2023-08-07T14:42:08.267Z,18.94
2023-08-07T14:44:34.901Z,19.06
2023-08-07T14:47:01.653Z,19.06
2023-08-07T14:49:28.529Z,18.88
2023-08-07T14:51:55.942Z,18.94
2023-08-07T14:54:24.712Z,18.63
2023-08-07T14:56:51.382Z,18.31
2023-08-07T14:59:18.261Z,18.25
2023-08-07T15:01:44.941Z,18.31
2023-08-07T15:04:12.096Z,18.63
2023-08-07T15:06:38.782Z,18.63
2023-08-07T15:09:05.500Z,18.69
2023-08-07T15:11:32.166Z,18.75
2023-08-07T15:13:58.785Z,18.88
2023-08-07T15:16:25.424Z,18.88
2023-08-07T15:18:52.105Z,18.69
2023-08-07T15:21:19.449Z,18.56
2023-08-07T15:23:46.130Z,18.31
2023-08-07T15:26:12.785Z,17.94
2023-08-07T15:28:40.552Z,17.88
2023-08-07T15:31:07.316Z,18.00
2023-08-07T15:33:33.915Z,18.31
2023-08-07T15:36:00.967Z,18.69
2023-08-07T15:38:27.701Z,18.94
2023-08-07T15:40:54.367Z,18.94
2023-08-07T15:43:21.023Z,18.75
2023-08-07T15:45:53.552Z,18.25
2023-08-07T15:48:20.985Z,18.06
2023-08-07T15:50:47.938Z,17.94
2023-08-07T15:53:14.852Z,18.13
2023-08-07T15:55:41.489Z,18.19
2023-08-07T15:58:08.250Z,18.06
2023-08-07T16:00:35.831Z,18.00
2023-08-07T16:03:07.337Z,17.88
2023-08-07T16:05:35.781Z,17.88
2023-08-07T16:08:03.812Z,17.88
2023-08-07T16:10:31.412Z,18.13
2023-08-07T16:12:58.064Z,18.00
2023-08-07T16:15:25.563Z,17.81
2023-08-07T16:17:53.260Z,17.56
2023-08-07T16:20:20.955Z,17.44
2023-08-07T16:22:47.670Z,17.38
2023-08-07T16:25:14.294Z,17.50
2023-08-07T16:27:41.445Z,17.56
2023-08-07T16:30:08.784Z,17.31
2023-08-07T16:32:37.669Z,17.19
2023-08-07T16:35:05.240Z,17.13
2023-08-07T16:37:33.298Z,17.13
2023-08-07T16:40:00.572Z,17.13
2023-08-07T16:42:27.258Z,17.25
2023-08-07T16:44:54.065Z,17.13
2023-08-07T16:47:21.147Z,17.06
2023-08-07T16:49:50.089Z,17.00
2023-08-07T16:52:17.330Z,17.06
2023-08-07T16:54:44.978Z,17.31
2023-08-07T16:57:11.623Z,17.31
2023-08-07T16:59:38.283Z,17.06
2023-08-07T17:02:05.281Z,17.13
2023-08-07T17:04:33.443Z,17.06
2023-08-07T17:07:02.659Z,17.06
2023-08-07T17:09:29.906Z,16.88
2023-08-07T17:11:56.684Z,16.75
2023-08-07T17:14:23.422Z,16.75
2023-08-07T17:16:50.117Z,16.81
2023-08-07T17:19:16.764Z,16.81
2023-08-07T17:21:43.511Z,16.69
2023-08-07T17:24:10.196Z,16.50
2023-08-07T17:26:36.941Z,16.31
2023-08-07T17:29:03.649Z,16.31
2023-08-07T17:31:31.011Z,16.25
2023-08-07T17:33:58.336Z,16.25
2023-08-07T17:36:26.165Z,16.25
2023-08-07T17:38:52.886Z,16.38
2023-08-07T17:41:21.707Z,16.38
2023-08-07T17:43:48.718Z,16.38
2023-08-07T17:46:15.415Z,16.38
2023-08-07T17:48:45.426Z,16.44
2023-08-07T17:51:15.344Z,16.63
2023-08-07T17:53:42.145Z,16.88
2023-08-07T17:56:08.765Z,16.94
2023-08-07T17:58:35.469Z,17.00
2023-08-07T18:01:03.463Z,17.00
2023-08-07T18:03:30.259Z,16.94
2023-08-07T18:05:56.879Z,16.94
2023-08-07T18:08:23.746Z,16.81
2023-08-07T18:10:50.427Z,16.75
2023-08-07T18:13:17.071Z,16.75
2023-08-07T18:15:43.708Z,16.69
2023-08-07T18:18:10.358Z,16.63
2023-08-07T18:20:37.280Z,16.56
2023-08-07T18:23:04.330Z,16.50
2023-08-07T18:25:31.104Z,16.44
2023-08-07T18:27:57.773Z,16.38
2023-08-07T18:30:24.482Z,16.31
2023-08-07T18:32:52.533Z,16.25
2023-08-07T18:35:20.028Z,16.19
2023-08-07T18:37:46.670Z,16.13
2023-08-07T18:40:13.628Z,16.06
2023-08-07T18:42:40.414Z,16.06
2023-08-07T18:45:07.617Z,16.00
2023-08-07T18:47:34.356Z,16.00
2023-08-07T18:50:01.078Z,15.94
2023-08-07T18:52:27.805Z,15.81
2023-08-07T18:54:56.262Z,15.81
2023-08-07T18:57:23.000Z,15.75
2023-08-07T18:59:49.617Z,15.69
2023-08-07T19:02:16.491Z,15.69
2023-08-07T19:04:43.266Z,15.63
2023-08-07T19:07:10.542Z,15.56
2023-08-07T19:09:37.260Z,15.44
2023-08-07T19:12:04.123Z,15.38
2023-08-07T19:14:31.233Z,15.31
2023-08-07T19:16:58.094Z,15.31
2023-08-07T19:19:24.916Z,15.25
2023-08-07T19:21:51.570Z,15.19
2023-08-07T19:24:18.184Z,15.19
2023-08-07T19:26:45.071Z,15.19
2023-08-07T19:29:13.510Z,15.13
2023-08-07T19:31:40.239Z,15.06
2023-08-07T19:34:09.828Z,15.06
2023-08-07T19:36:41.436Z,15.00
2023-08-07T19:39:08.521Z,15.00
2023-08-07T19:41:36.734Z,14.81
2023-08-07T19:44:04.193Z,14.75
2023-08-07T19:46:30.913Z,14.63
2023-08-07T19:48:57.886Z,14.44
2023-08-07T19:51:24.581Z,14.50
2023-08-07T19:54:01.353Z,14.56
2023-08-07T19:56:30.093Z,14.44
2023-08-07T19:58:58.032Z,14.38
2023-08-07T20:01:24.797Z,14.25
2023-08-07T20:03:51.582Z,14.31
2023-08-07T20:06:18.190Z,14.25
2023-08-07T20:08:44.900Z,14.31
2023-08-07T20:11:11.609Z,14.31
2023-08-07T20:13:39.055Z,14.25
2023-08-07T20:16:07.615Z,14.19
2023-08-07T20:18:34.347Z,14.13
2023-08-07T20:21:01.036Z,14.00
2023-08-07T20:23:28.190Z,13.81
2023-08-07T20:25:56.328Z,13.81
2023-08-07T20:28:22.976Z,13.50
2023-08-07T20:30:49.673Z,13.44
2023-08-07T20:33:16.353Z,13.50
2023-08-07T20:35:43.009Z,13.38
2023-08-07T20:38:09.642Z,13.25
2023-08-07T20:40:36.277Z,13.25
2023-08-07T20:43:02.943Z,13.19
2023-08-07T20:45:29.727Z,13.19
2023-08-07T20:47:56.417Z,13.13
2023-08-07T20:50:23.107Z,13.00
2023-08-07T20:52:49.707Z,12.81
2023-08-07T20:55:16.404Z,13.00
2023-08-07T20:57:43.034Z,13.00
2023-08-07T21:00:10.219Z,12.88
2023-08-07T21:02:36.962Z,12.88
2023-08-07T21:05:04.073Z,12.94
2023-08-07T21:07:30.732Z,13.00
2023-08-07T21:10:00.963Z,13.00
2023-08-07T21:12:28.303Z,13.13
2023-08-07T21:14:55.010Z,13.19
2023-08-07T21:17:21.706Z,13.19
2023-08-07T21:19:49.164Z,13.13
2023-08-07T21:22:15.910Z,13.13
2023-08-07T21:24:42.535Z,13.19
2023-08-07T21:27:09.190Z,13.19
2023-08-07T21:29:35.838Z,13.31
2023-08-07T21:32:02.626Z,13.31
2023-08-07T21:34:29.281Z,13.31
2023-08-07T21:36:55.949Z,13.50
2023-08-07T21:39:22.658Z,13.44
2023-08-07T21:41:49.321Z,13.44
2023-08-07T21:44:16.863Z,13.50
2023-08-07T21:46:46.301Z,13.50
2023-08-07T21:49:12.969Z,13.50
2023-08-07T21:51:39.628Z,13.50
2023-08-07T21:54:06.259Z,13.44
2023-08-07T21:56:32.933Z,13.50
2023-08-07T21:58:59.533Z,13.44
2023-08-07T22:01:26.997Z,13.44
2023-08-07T22:03:53.858Z,13.44
2023-08-07T22:06:20.543Z,13.50
2023-08-07T22:08:47.157Z,13.50
2023-08-07T22:11:14.720Z,13.50
2023-08-07T22:13:41.378Z,13.31
2023-08-07T22:16:08.032Z,13.38
2023-08-07T22:18:34.707Z,13.31
2023-08-07T22:21:01.338Z,13.31
2023-08-07T22:23:28.008Z,13.38
2023-08-07T22:25:56.140Z,13.25
2023-08-07T22:28:23.166Z,13.13
2023-08-07T22:30:51.155Z,13.13
2023-08-07T22:33:17.894Z,13.13
2023-08-07T22:35:44.550Z,13.19
2023-08-07T22:38:11.195Z,13.19
2023-08-07T22:40:38.767Z,13.25
2023-08-07T22:43:05.539Z,13.31
2023-08-07T22:45:32.239Z,13.31
2023-08-07T22:47:58.968Z,13.31
2023-08-07T22:50:25.604Z,13.31
2023-08-07T22:52:52.209Z,13.13
2023-08-07T22:55:18.796Z,13.13
2023-08-07T22:57:45.404Z,13.13
2023-08-07T23:00:13.098Z,13.19
2023-08-07T23:02:40.093Z,13.06
2023-08-07T23:05:07.761Z,13.06
2023-08-07T23:07:34.431Z,13.00
2023-08-07T23:10:01.936Z,13.06
2023-08-07T23:12:28.665Z,13.13
2023-08-07T23:14:55.305Z,13.13
2023-08-07T23:17:22.001Z,13.13
2023-08-07T23:19:48.696Z,13.06
2023-08-07T23:22:15.455Z,13.06
2023-08-07T23:24:42.055Z,13.06
2023-08-07T23:27:08.726Z,13.13
2023-08-07T23:29:36.009Z,13.06
2023-08-07T23:32:02.730Z,13.13
2023-08-07T23:34:29.385Z,13.13
2023-08-07T23:36:55.992Z,13.19
2023-08-07T23:39:22.709Z,13.13
2023-08-07T23:41:49.307Z,13.19
2023-08-07T23:44:15.870Z,13.25
2023-08-07T23:46:42.612Z,13.25
2023-08-07T23:49:09.398Z,13.25
2023-08-07T23:51:36.038Z,13.31
2023-08-07T23:54:02.636Z,13.38
2023-08-07T23:56:31.010Z,13.44
2023-08-07T23:58:57.618Z,13.50
